createdAt,value
2019-05-18T00:02:21.556Z,100.00
2019-05-18T00:04:52.156Z,100.00
2019-05-18T00:07:25.755Z,100.00
2019-05-18T00:09:56.309Z,100.00
2019-05-18T00:12:26.931Z,100.00
2019-05-18T00:14:57.507Z,100.00
2019-05-18T00:17:28.163Z,100.00
2019-05-18T00:19:58.700Z,100.00
2019-05-18T00:22:29.315Z,100.00
2019-05-18T00:24:59.872Z,100.00
2019-05-18T00:27:32.125Z,100.00
2019-05-18T00:30:02.698Z,100.00
2019-05-18T00:32:33.313Z,100.00
2019-05-18T00:35:03.936Z,100.00
2019-05-18T00:37:34.560Z,100.00
2019-05-18T00:40:07.588Z,100.00
2019-05-18T00:42:38.229Z,100.00
2019-05-18T00:45:11.253Z,100.00
2019-05-18T00:47:42.433Z,100.00
2019-05-18T00:50:13.408Z,100.00
2019-05-18T00:52:44.017Z,100.00
2019-05-18T00:55:14.764Z,100.00
2019-05-18T00:57:45.369Z,100.00
2019-05-18T01:00:16.591Z,100.00
2019-05-18T01:02:47.229Z,100.00
2019-05-18T01:05:17.868Z,100.00
2019-05-18T01:07:48.429Z,100.00
2019-05-18T01:10:18.977Z,100.00
2019-05-18T01:12:49.590Z,100.00
2019-05-18T01:15:20.633Z,100.00
2019-05-18T01:17:57.320Z,99.58
2019-05-18T01:20:23.524Z,100.00
2019-05-18T01:22:54.131Z,100.00
2019-05-18T01:25:24.640Z,100.00
2019-05-18T01:27:55.274Z,100.00
2019-05-18T01:30:26.787Z,100.00
2019-05-18T01:32:59.042Z,100.00
2019-05-18T01:35:29.605Z,100.00
2019-05-18T01:38:00.141Z,100.00
2019-05-18T01:40:30.753Z,100.00
2019-05-18T01:43:01.298Z,100.00
2019-05-18T01:45:31.875Z,100.00
2019-05-18T01:48:13.470Z,100.00
2019-05-18T01:50:34.758Z,100.00
2019-05-18T01:53:05.321Z,100.00
2019-05-18T01:55:35.921Z,100.00
2019-05-18T01:58:06.471Z,100.00
2019-05-18T02:00:37.109Z,100.00
2019-05-18T02:03:09.266Z,100.00
2019-05-18T02:05:39.863Z,100.00
2019-05-18T02:08:10.460Z,100.00
2019-05-18T02:10:41.008Z,100.00
2019-05-18T02:13:11.625Z,100.00
2019-05-18T02:15:42.191Z,100.00
2019-05-18T02:18:26.895Z,100.00
2019-05-18T02:20:45.077Z,100.00
2019-05-18T02:23:15.669Z,100.00
2019-05-18T02:25:46.263Z,100.00
2019-05-18T02:28:17.862Z,100.00
2019-05-18T02:30:49.790Z,100.00
2019-05-18T02:33:20.351Z,100.00
2019-05-18T02:35:50.909Z,100.00
2019-05-18T02:38:21.514Z,100.00
2019-05-18T02:40:52.074Z,100.00
2019-05-18T02:43:22.653Z,100.00
2019-05-18T02:45:53.181Z,100.00
2019-05-18T02:48:25.507Z,100.00
2019-05-18T02:50:56.080Z,100.00
2019-05-18T02:53:26.646Z,100.00
2019-05-18T02:55:57.228Z,100.00
2019-05-18T02:58:27.840Z,100.00
2019-05-18T03:00:58.397Z,100.00
2019-05-18T03:03:28.972Z,100.00
2019-05-18T03:05:59.745Z,100.00
2019-05-18T03:08:30.296Z,100.00
2019-05-18T03:11:01.226Z,100.00
2019-05-18T03:13:31.813Z,100.00
2019-05-18T03:16:02.609Z,100.00
2019-05-18T03:18:33.194Z,100.00
2019-05-18T03:21:03.762Z,100.00
2019-05-18T03:23:34.415Z,100.00
2019-05-18T03:26:04.964Z,100.00
2019-05-18T03:28:38.555Z,100.00
2019-05-18T03:31:09.137Z,100.00
2019-05-18T03:33:39.689Z,100.00
2019-05-18T03:36:10.263Z,100.00
2019-05-18T03:38:41.004Z,100.00
2019-05-18T03:41:11.524Z,100.00
2019-05-18T03:43:42.150Z,100.00
2019-05-18T03:46:12.688Z,100.00
2019-05-18T03:48:43.272Z,100.00
2019-05-18T03:51:13.869Z,100.00
2019-05-18T03:53:44.465Z,100.00
2019-05-18T03:56:15.042Z,100.00
2019-05-18T03:58:45.639Z,100.00
2019-05-18T04:01:16.214Z,100.00
2019-05-18T04:03:46.826Z,100.00
2019-05-18T04:06:17.364Z,100.00
2019-05-18T04:08:47.927Z,100.00
2019-05-18T04:11:18.552Z,100.00
2019-05-18T04:13:49.160Z,100.00
2019-05-18T04:16:19.674Z,100.00
2019-05-18T04:18:50.240Z,100.00
2019-05-18T04:21:20.773Z,100.00
2019-05-18T04:23:51.299Z,100.00
2019-05-18T04:26:21.952Z,100.00
2019-05-18T04:28:52.500Z,100.00
2019-05-18T04:31:23.137Z,100.00
2019-05-18T04:33:53.651Z,100.00
2019-05-18T04:36:24.251Z,100.00
2019-05-18T04:38:54.913Z,100.00
2019-05-18T04:41:25.528Z,100.00
2019-05-18T04:43:56.079Z,100.00
2019-05-18T04:46:26.668Z,100.00
2019-05-18T04:49:00.060Z,100.00
2019-05-18T04:51:31.773Z,100.00
2019-05-18T04:54:02.382Z,100.00
2019-05-18T04:56:34.337Z,100.00
2019-05-18T04:59:04.957Z,100.00
2019-05-18T05:01:35.546Z,100.00
2019-05-18T05:04:06.147Z,100.00
2019-05-18T05:06:36.753Z,100.00
2019-05-18T05:09:09.089Z,100.00
2019-05-18T05:11:39.655Z,100.00
2019-05-18T05:14:10.181Z,100.00
2019-05-18T05:16:41.749Z,100.00
2019-05-18T05:19:12.364Z,100.00
2019-05-18T05:21:42.912Z,100.00
2019-05-18T05:24:13.486Z,100.00
2019-05-18T05:26:44.121Z,100.00
2019-05-18T05:29:17.641Z,100.00
2019-05-18T05:31:48.275Z,100.00
2019-05-18T05:34:18.880Z,100.00
2019-05-18T05:36:49.474Z,100.00
2019-05-18T05:39:21.820Z,100.00
2019-05-18T05:41:52.384Z,100.00
2019-05-18T05:44:23.029Z,100.00
2019-05-18T05:46:53.591Z,100.00
2019-05-18T05:49:26.584Z,100.00
2019-05-18T05:51:57.160Z,100.00
2019-05-18T05:54:29.682Z,100.00
2019-05-18T05:57:00.291Z,100.00
2019-05-18T05:59:30.897Z,100.00
2019-05-18T06:02:01.504Z,100.00
2019-05-18T06:04:32.123Z,100.00
2019-05-18T06:07:02.682Z,100.00
2019-05-18T06:09:33.328Z,100.00
2019-05-18T06:12:04.746Z,100.00
2019-05-18T06:14:35.380Z,100.00
2019-05-18T06:17:08.402Z,100.00
2019-05-18T06:19:38.305Z,100.00
2019-05-18T06:22:10.147Z,100.00
2019-05-18T06:24:41.926Z,100.00
2019-05-18T06:27:12.481Z,100.00
2019-05-18T06:29:43.778Z,100.00
2019-05-18T06:32:14.417Z,100.00
2019-05-18T06:34:45.075Z,100.00
2019-05-18T06:37:15.633Z,100.00
2019-05-18T06:39:46.282Z,100.00
2019-05-18T06:42:16.969Z,100.00
2019-05-18T06:44:47.624Z,100.00
2019-05-18T06:47:18.185Z,100.00
2019-05-18T06:49:48.832Z,100.00
2019-05-18T06:52:19.398Z,100.00
2019-05-18T06:54:50.084Z,100.00
2019-05-18T06:57:23.102Z,100.00
2019-05-18T06:59:53.918Z,100.00
2019-05-18T07:02:24.521Z,100.00
2019-05-18T07:04:55.119Z,100.00
2019-05-18T07:07:27.452Z,100.00
2019-05-18T07:09:58.104Z,100.00
2019-05-18T07:12:29.011Z,100.00
2019-05-18T07:15:00.518Z,100.00
2019-05-18T07:17:34.501Z,100.00
2019-05-18T07:20:04.085Z,100.00
2019-05-18T07:22:34.672Z,100.00
2019-05-18T07:25:05.354Z,100.00
2019-05-18T07:27:37.650Z,100.00
2019-05-18T07:30:08.793Z,100.00
2019-05-18T07:32:40.718Z,100.00
2019-05-18T07:35:11.922Z,99.86
2019-05-18T07:37:42.533Z,99.72
2019-05-18T07:40:13.339Z,99.47
2019-05-18T07:42:43.890Z,99.22
2019-05-18T07:45:15.717Z,98.90
2019-05-18T07:47:46.280Z,98.57
2019-05-18T07:50:17.103Z,98.06
2019-05-18T07:52:47.751Z,97.13
2019-05-18T07:55:18.805Z,96.81
2019-05-18T07:57:49.481Z,96.82
2019-05-18T08:00:20.141Z,96.47
2019-05-18T08:02:50.674Z,95.89
2019-05-18T08:05:21.927Z,95.34
2019-05-18T08:07:52.596Z,94.62
2019-05-18T08:10:36.954Z,94.53
2019-05-18T08:13:08.355Z,93.20
2019-05-18T08:15:39.057Z,92.29
2019-05-18T08:18:09.637Z,91.24
2019-05-18T08:20:40.236Z,91.25
2019-05-18T08:23:10.813Z,90.07
2019-05-18T08:25:41.419Z,90.21
2019-05-18T08:28:11.996Z,89.75
2019-05-18T08:30:42.569Z,89.58
2019-05-18T08:33:17.079Z,89.30
2019-05-18T08:35:47.707Z,89.70
2019-05-18T08:38:18.295Z,89.44
2019-05-18T08:40:48.936Z,89.10
2019-05-18T08:43:20.626Z,88.72
2019-05-18T08:45:52.447Z,87.83
2019-05-18T08:48:23.039Z,87.91
2019-05-18T08:50:53.641Z,87.92
2019-05-18T08:53:24.217Z,87.39
2019-05-18T08:55:54.830Z,86.27
2019-05-18T08:58:25.496Z,86.17
2019-05-18T09:00:56.070Z,85.78
2019-05-18T09:03:26.668Z,84.91
2019-05-18T09:05:57.315Z,85.00
2019-05-18T09:08:27.913Z,84.56
2019-05-18T09:10:58.476Z,83.31
2019-05-18T09:13:29.108Z,81.35
2019-05-18T09:15:59.758Z,81.35
2019-05-18T09:18:30.321Z,81.13
2019-05-18T09:21:00.906Z,81.07
2019-05-18T09:23:33.499Z,79.72
2019-05-18T09:26:04.096Z,80.74
2019-05-18T09:28:34.721Z,81.06
2019-05-18T09:31:05.299Z,80.13
2019-05-18T09:33:35.913Z,79.80
2019-05-18T09:36:06.483Z,79.96
2019-05-18T09:38:41.687Z,80.59
2019-05-18T09:41:11.813Z,79.14
2019-05-18T09:43:42.411Z,77.26
2019-05-18T09:46:14.671Z,76.06
2019-05-18T09:48:45.220Z,76.64
2019-05-18T09:51:15.869Z,78.20
2019-05-18T09:53:51.447Z,78.27
2019-05-18T09:56:18.801Z,77.68
2019-05-18T09:58:50.507Z,76.04
2019-05-18T10:01:21.108Z,75.74
2019-05-18T10:03:51.889Z,75.78
2019-05-18T10:06:22.523Z,75.73
2019-05-18T10:08:53.082Z,75.48
2019-05-18T10:11:23.794Z,75.36
2019-05-18T10:13:54.904Z,75.95
2019-05-18T10:16:25.528Z,74.90
2019-05-18T10:18:56.098Z,74.24
2019-05-18T10:21:26.694Z,73.95
2019-05-18T10:23:57.273Z,73.05
2019-05-18T10:26:27.880Z,73.26
2019-05-18T10:28:58.476Z,72.96
2019-05-18T10:31:29.078Z,71.89
2019-05-18T10:33:59.632Z,72.87
2019-05-18T10:36:30.166Z,74.19
2019-05-18T10:39:00.786Z,74.58
2019-05-18T10:41:31.461Z,73.45
2019-05-18T10:44:02.057Z,72.65
2019-05-18T10:46:33.439Z,72.67
2019-05-18T10:49:04.046Z,71.53
2019-05-18T10:51:34.682Z,71.57
2019-05-18T10:54:05.258Z,71.37
2019-05-18T10:56:35.837Z,70.55
2019-05-18T10:59:06.498Z,71.26
2019-05-18T11:01:37.079Z,69.63
2019-05-18T11:04:10.431Z,68.04
2019-05-18T11:06:41.042Z,68.61
2019-05-18T11:09:11.624Z,67.90
2019-05-18T11:11:43.919Z,67.54
2019-05-18T11:14:14.471Z,68.38
2019-05-18T11:16:45.502Z,68.61
2019-05-18T11:19:16.326Z,68.43
2019-05-18T11:21:46.962Z,68.73
2019-05-18T11:24:17.578Z,67.18
2019-05-18T11:26:48.197Z,66.92
2019-05-18T11:29:22.645Z,66.70
2019-05-18T11:31:51.158Z,68.11
2019-05-18T11:34:21.781Z,68.13
2019-05-18T11:36:52.432Z,68.85
2019-05-18T11:39:22.993Z,68.18
2019-05-18T11:41:53.629Z,67.39
2019-05-18T11:44:24.183Z,66.23
2019-05-18T11:46:55.973Z,66.24
2019-05-18T11:49:29.045Z,65.92
2019-05-18T11:51:58.899Z,65.57
2019-05-18T11:54:29.495Z,65.30
2019-05-18T11:57:00.107Z,64.15
2019-05-18T11:59:30.800Z,65.13
2019-05-18T12:02:01.480Z,65.44
2019-05-18T12:04:32.038Z,64.78
2019-05-18T12:07:02.669Z,65.75
2019-05-18T12:09:33.200Z,64.84
2019-05-18T12:12:03.837Z,63.25
2019-05-18T12:14:36.106Z,63.31
2019-05-18T12:17:06.734Z,61.95
2019-05-18T12:19:37.390Z,59.43
2019-05-18T12:22:08.134Z,60.37
2019-05-18T12:24:38.713Z,60.46
2019-05-18T12:27:10.611Z,60.94
2019-05-18T12:29:41.160Z,60.16
2019-05-18T12:32:11.846Z,61.60
2019-05-18T12:34:44.954Z,61.13
2019-05-18T12:37:23.145Z,61.41
2019-05-18T12:39:54.859Z,62.49
2019-05-18T12:42:25.523Z,62.68
2019-05-18T12:44:56.088Z,62.64
2019-05-18T12:47:26.785Z,62.57
2019-05-18T12:49:57.407Z,61.48
2019-05-18T12:52:27.976Z,57.76
2019-05-18T12:54:58.584Z,59.69
2019-05-18T12:57:29.176Z,59.85
2019-05-18T13:00:02.943Z,58.73
2019-05-18T13:02:33.653Z,59.49
2019-05-18T13:05:04.374Z,57.31
2019-05-18T13:07:36.417Z,58.06
2019-05-18T13:10:08.014Z,56.88
2019-05-18T13:12:38.677Z,57.43
2019-05-18T13:15:12.905Z,57.32
2019-05-18T13:17:43.499Z,58.31
2019-05-18T13:20:17.678Z,57.30
2019-05-18T13:22:48.329Z,56.87
2019-05-18T13:25:19.380Z,57.25
2019-05-18T13:27:50.021Z,56.75
2019-05-18T13:30:22.669Z,57.23
2019-05-18T13:32:53.222Z,56.25
2019-05-18T13:35:23.795Z,56.20
2019-05-18T13:37:54.408Z,55.60
2019-05-18T13:40:25.050Z,55.35
2019-05-18T13:42:55.652Z,53.85
2019-05-18T13:45:26.253Z,50.31
2019-05-18T13:47:56.875Z,51.21
2019-05-18T13:50:27.415Z,52.60
2019-05-18T13:52:58.098Z,53.61
2019-05-18T13:55:30.282Z,52.98
2019-05-18T13:58:00.943Z,53.20
2019-05-18T14:00:31.491Z,53.91
2019-05-18T14:03:02.160Z,54.53
2019-05-18T14:05:35.543Z,53.50
2019-05-18T14:08:06.274Z,53.95
2019-05-18T14:10:36.794Z,54.19
2019-05-18T14:13:07.457Z,53.43
2019-05-18T14:15:38.115Z,52.86
2019-05-18T14:18:08.797Z,52.90
2019-05-18T14:20:39.351Z,52.81
2019-05-18T14:23:11.103Z,54.98
2019-05-18T14:25:46.155Z,55.38
2019-05-18T14:28:19.284Z,54.29
2019-05-18T14:30:49.885Z,54.42
2019-05-18T14:33:20.481Z,54.94
2019-05-18T14:35:51.092Z,55.43
2019-05-18T14:38:21.709Z,55.36
2019-05-18T14:40:52.246Z,54.09
2019-05-18T14:43:28.983Z,54.30
2019-05-18T14:45:59.606Z,52.80
2019-05-18T14:48:33.872Z,51.26
2019-05-18T14:51:04.428Z,51.43
2019-05-18T14:53:35.103Z,51.66
2019-05-18T14:56:06.351Z,52.22
2019-05-18T14:58:36.947Z,52.14
2019-05-18T15:01:07.593Z,52.65
2019-05-18T15:03:38.314Z,53.18
2019-05-18T15:06:08.889Z,54.04
2019-05-18T15:08:39.515Z,53.86
2019-05-18T15:11:10.102Z,54.01
2019-05-18T15:13:40.775Z,54.13
2019-05-18T15:16:11.402Z,54.56
2019-05-18T15:18:42.030Z,54.29
2019-05-18T15:21:12.670Z,53.45
2019-05-18T15:23:43.344Z,54.10
2019-05-18T15:26:14.082Z,54.73
2019-05-18T15:28:44.711Z,55.08
2019-05-18T15:31:17.559Z,54.99
2019-05-18T15:33:48.260Z,55.58
2019-05-18T15:36:20.906Z,55.14
2019-05-18T15:38:51.553Z,55.06
2019-05-18T15:41:22.093Z,56.33
2019-05-18T15:43:52.733Z,58.09
2019-05-18T15:46:26.397Z,59.33
2019-05-18T15:48:57.231Z,62.29
2019-05-18T15:51:27.951Z,63.52
2019-05-18T15:53:58.633Z,64.74
2019-05-18T15:56:29.317Z,65.77
2019-05-18T15:59:00.108Z,65.81
2019-05-18T16:01:30.724Z,65.50
2019-05-18T16:04:01.432Z,65.79
2019-05-18T16:06:33.349Z,67.25
2019-05-18T16:09:05.525Z,68.30
2019-05-18T16:11:36.076Z,69.37
2019-05-18T16:14:06.841Z,70.75
2019-05-18T16:16:38.096Z,73.47
2019-05-18T16:19:08.752Z,76.90
2019-05-18T16:21:39.820Z,80.18
2019-05-18T16:24:10.455Z,80.62
2019-05-18T16:26:41.036Z,80.86
2019-05-18T16:29:13.065Z,82.54
2019-05-18T16:31:43.667Z,84.71
2019-05-18T16:34:14.375Z,84.54
2019-05-18T16:36:45.090Z,87.14
2019-05-18T16:39:15.701Z,88.39
2019-05-18T16:41:47.001Z,89.78
2019-05-18T16:44:17.589Z,91.27
2019-05-18T16:46:48.205Z,90.94
2019-05-18T16:49:18.877Z,92.70
2019-05-18T16:51:50.495Z,93.79
2019-05-18T16:54:21.179Z,94.64
2019-05-18T17:01:00.426Z,94.84
2019-05-18T17:06:38.776Z,94.92
2019-05-18T17:13:04.595Z,96.37
2019-05-18T17:19:32.218Z,97.34
2019-05-18T17:26:09.132Z,94.34
2019-05-18T17:32:39.894Z,95.77
2019-05-18T17:39:07.793Z,96.27
2019-05-18T17:45:49.048Z,94.94
2019-05-18T17:52:14.642Z,96.74
2019-05-18T17:58:41.700Z,99.85
2019-05-18T18:05:07.521Z,100.00
2019-05-18T18:14:43.217Z,100.00
2019-05-18T18:21:22.861Z,100.00
2019-05-18T18:27:52.028Z,100.00
2019-05-18T18:34:16.596Z,100.00
2019-05-18T18:40:42.448Z,100.00
2019-05-18T18:47:11.171Z,100.00
2019-05-18T18:53:39.378Z,100.00
2019-05-18T19:00:06.964Z,100.00
2019-05-18T19:06:44.128Z,100.00
2019-05-18T19:16:47.099Z,100.00
2019-05-18T19:23:12.916Z,100.00
2019-05-18T19:29:38.513Z,100.00
2019-05-18T19:36:17.470Z,100.00
2019-05-18T19:42:41.281Z,100.00
2019-05-18T19:49:08.761Z,100.00
2019-05-18T19:55:38.184Z,100.00
2019-05-18T20:02:19.154Z,100.00
2019-05-18T20:08:21.392Z,100.00
2019-05-18T20:14:51.397Z,100.00
2019-05-18T20:21:22.111Z,100.00
2019-05-18T20:27:50.305Z,100.00
2019-05-18T20:34:16.132Z,100.00
2019-05-18T20:40:41.943Z,100.00
2019-05-18T20:47:20.668Z,100.00
2019-05-18T20:53:46.511Z,100.00
2019-05-18T20:59:34.153Z,100.00
2019-05-18T21:06:01.997Z,100.00
2019-05-18T21:12:40.715Z,100.00
2019-05-18T21:18:56.320Z,100.00
2019-05-18T21:25:24.519Z,100.00
2019-05-18T21:31:54.369Z,100.00
2019-05-18T21:38:22.206Z,100.00
2019-05-18T21:44:51.053Z,100.00
2019-05-18T21:51:16.634Z,100.00
2019-05-18T21:57:57.841Z,100.00
2019-05-18T22:04:21.438Z,100.00
2019-05-18T22:10:48.471Z,100.00
2019-05-18T22:20:50.229Z,100.00
2019-05-18T22:27:29.188Z,100.00
2019-05-18T22:33:52.992Z,100.00
2019-05-18T22:40:22.036Z,100.00
2019-05-18T22:46:49.873Z,100.00
2019-05-18T22:53:26.801Z,100.00
2019-05-18T22:59:54.411Z,100.00
2019-05-18T23:06:20.268Z,100.00
2019-05-18T23:12:57.181Z,100.00
2019-05-18T23:22:47.005Z,100.00
2019-05-18T23:29:00.931Z,100.00
2019-05-18T23:35:28.773Z,100.00
2019-05-18T23:41:54.595Z,100.00
2019-05-18T23:48:31.521Z,100.00
2019-05-18T23:54:57.341Z,100.00
